createdAt,value
2022-12-22T00:00:24.973Z,13.13
2022-12-22T00:03:11.064Z,16.27
2022-12-22T00:05:56.951Z,13.93
2022-12-22T00:08:42.807Z,14.87
2022-12-22T00:11:32.115Z,15.37
2022-12-22T00:14:18.272Z,16.90
2022-12-22T00:17:04.701Z,13.70
2022-12-22T00:19:50.460Z,16.23
2022-12-22T00:22:39.433Z,15.83
2022-12-22T00:25:26.113Z,14.53
2022-12-22T00:28:11.937Z,20.90
2022-12-22T00:30:58.161Z,19.97
2022-12-22T00:33:43.783Z,16.00
2022-12-22T00:36:31.319Z,14.60
2022-12-22T00:39:17.247Z,18.07
2022-12-22T00:42:03.264Z,13.53
2022-12-22T00:44:49.179Z,17.33
2022-12-22T00:47:43.710Z,12.70
2022-12-22T00:50:29.742Z,19.70
2022-12-22T00:53:16.184Z,17.90
2022-12-22T00:56:02.132Z,16.40
2022-12-22T00:58:48.475Z,19.87
2022-12-22T01:01:34.355Z,14.93
2022-12-22T01:04:20.295Z,21.23
2022-12-22T01:07:06.297Z,15.07
2022-12-22T01:09:52.248Z,18.80
2022-12-22T01:12:42.379Z,19.30
2022-12-22T01:15:32.547Z,23.73
2022-12-22T01:18:18.310Z,21.87
2022-12-22T01:21:04.342Z,19.97
2022-12-22T01:23:50.290Z,20.27
2022-12-22T01:26:36.399Z,17.47
2022-12-22T01:29:22.289Z,19.80
2022-12-22T01:32:08.491Z,19.60
2022-12-22T01:34:54.837Z,17.33
2022-12-22T01:37:40.766Z,22.80
2022-12-22T01:40:29.808Z,18.53
2022-12-22T01:43:15.789Z,16.90
2022-12-22T01:46:01.823Z,26.37
2022-12-22T01:48:49.102Z,24.03
2022-12-22T01:51:37.479Z,22.37
2022-12-22T01:54:23.481Z,22.13
2022-12-22T01:57:09.421Z,17.60
2022-12-22T01:59:55.406Z,24.13
2022-12-22T02:02:42.821Z,23.70
2022-12-22T02:05:30.175Z,24.53
2022-12-22T02:08:19.696Z,19.43
2022-12-22T02:11:11.367Z,20.47
2022-12-22T02:13:59.722Z,20.93
2022-12-22T02:16:57.811Z,21.83
2022-12-22T02:19:59.495Z,18.20
2022-12-22T02:23:04.063Z,23.73
2022-12-22T02:25:54.501Z,21.37
2022-12-22T02:28:41.138Z,19.70
2022-12-22T02:31:27.151Z,19.43
2022-12-22T02:34:14.570Z,24.07
2022-12-22T02:37:12.139Z,17.83
2022-12-22T02:39:57.976Z,21.40
2022-12-22T02:42:54.042Z,26.47
2022-12-22T02:45:58.610Z,23.13
2022-12-22T02:48:52.217Z,22.17
2022-12-22T02:51:39.713Z,19.77
2022-12-22T02:54:26.531Z,21.83
2022-12-22T02:57:12.445Z,14.10
2022-12-22T02:59:58.372Z,22.73
2022-12-22T03:02:44.549Z,17.83
2022-12-22T03:05:30.296Z,19.10
2022-12-22T03:08:16.745Z,20.17
2022-12-22T03:11:02.755Z,18.63
2022-12-22T03:13:48.700Z,20.17
2022-12-22T03:16:34.820Z,19.90
2022-12-22T03:19:20.824Z,20.10
2022-12-22T03:22:07.000Z,23.40
2022-12-22T03:24:53.173Z,22.83
2022-12-22T03:27:20.332Z,22.83
2022-12-22T03:29:47.467Z,18.67
2022-12-22T03:32:14.613Z,19.13
2022-12-22T03:34:41.776Z,21.90
2022-12-22T03:37:08.933Z,23.20
2022-12-22T03:39:36.487Z,25.70
2022-12-22T03:42:22.452Z,19.90
2022-12-22T03:45:08.348Z,23.17
2022-12-22T03:47:35.470Z,22.00
2022-12-22T03:50:02.596Z,17.33
2022-12-22T03:52:29.774Z,22.90
2022-12-22T03:54:56.888Z,20.87
2022-12-22T03:57:23.989Z,20.10
2022-12-22T03:59:51.158Z,24.03
2022-12-22T04:02:18.431Z,25.30
2022-12-22T04:04:45.600Z,27.43
2022-12-22T04:07:12.764Z,23.47
2022-12-22T04:09:59.868Z,23.97
2022-12-22T04:12:46.014Z,26.80
2022-12-22T04:15:13.157Z,21.17
2022-12-22T04:17:40.325Z,19.00
2022-12-22T04:20:07.787Z,21.07
2022-12-22T04:22:35.412Z,22.57
2022-12-22T04:25:02.716Z,21.37
2022-12-22T04:27:29.889Z,20.40
2022-12-22T04:29:57.043Z,21.50
2022-12-22T04:32:24.178Z,23.27
2022-12-22T04:34:51.452Z,21.83
2022-12-22T04:37:18.557Z,18.23
2022-12-22T04:39:45.749Z,18.33
2022-12-22T04:42:12.917Z,18.10
2022-12-22T04:44:40.031Z,21.30
2022-12-22T04:47:07.184Z,24.87
2022-12-22T04:49:34.319Z,21.03
2022-12-22T04:52:01.551Z,22.23
2022-12-22T04:54:28.750Z,21.73
2022-12-22T04:56:55.903Z,21.80
2022-12-22T04:59:23.055Z,23.37
2022-12-22T05:01:50.259Z,25.30
2022-12-22T05:04:23.387Z,22.57
2022-12-22T05:06:50.927Z,25.47
2022-12-22T05:09:18.093Z,26.70
2022-12-22T05:11:45.232Z,24.13
2022-12-22T05:14:12.482Z,26.83
2022-12-22T05:16:39.668Z,25.33
2022-12-22T05:19:06.868Z,27.80
2022-12-22T05:21:34.170Z,28.27
2022-12-22T05:24:01.371Z,24.90
2022-12-22T05:26:28.510Z,27.80
2022-12-22T05:28:55.703Z,25.97
2022-12-22T05:31:23.945Z,29.57
2022-12-22T05:33:51.311Z,23.43
2022-12-22T05:36:18.829Z,26.53
2022-12-22T05:38:46.037Z,25.23
2022-12-22T05:41:13.231Z,23.17
2022-12-22T05:43:40.502Z,26.23
2022-12-22T05:46:08.920Z,22.60
2022-12-22T05:48:38.903Z,22.63
2022-12-22T05:51:07.494Z,24.33
2022-12-22T05:53:34.621Z,15.93
2022-12-22T05:56:01.828Z,30.20
2022-12-22T05:58:29.089Z,30.93
2022-12-22T06:00:59.881Z,24.07
2022-12-22T06:03:27.889Z,27.87
2022-12-22T06:05:55.594Z,28.77
2022-12-22T06:08:23.109Z,24.47
2022-12-22T06:10:50.248Z,30.17
2022-12-22T06:13:17.835Z,26.73
2022-12-22T06:15:44.975Z,26.60
2022-12-22T06:18:12.108Z,27.60
2022-12-22T06:20:39.247Z,34.47
2022-12-22T06:23:06.400Z,27.50
2022-12-22T06:25:33.539Z,25.70
2022-12-22T06:28:01.333Z,31.97
2022-12-22T06:30:33.336Z,28.57
2022-12-22T06:33:01.312Z,28.90
2022-12-22T06:35:28.751Z,26.50
2022-12-22T06:37:56.065Z,30.20
2022-12-22T06:40:23.253Z,25.97
2022-12-22T06:43:09.565Z,24.53
2022-12-22T06:45:41.967Z,26.90
2022-12-22T06:48:10.159Z,26.20
2022-12-22T06:50:37.292Z,26.77
2022-12-22T06:53:04.948Z,31.80
2022-12-22T06:55:32.381Z,22.27
2022-12-22T06:57:59.608Z,34.63
2022-12-22T07:00:26.750Z,24.43
2022-12-22T07:02:54.217Z,24.57
2022-12-22T07:05:21.521Z,25.87
2022-12-22T07:07:48.657Z,29.00
2022-12-22T07:10:16.344Z,27.03
2022-12-22T07:12:43.490Z,24.93
2022-12-22T07:15:11.139Z,25.10
2022-12-22T07:17:38.326Z,22.83
2022-12-22T07:20:05.712Z,21.67
2022-12-22T07:22:32.872Z,24.17
2022-12-22T07:25:00.003Z,25.13
2022-12-22T07:27:27.124Z,15.00
2022-12-22T07:29:54.358Z,23.67
2022-12-22T07:32:21.762Z,26.47
2022-12-22T07:34:48.924Z,29.33
2022-12-22T07:37:16.088Z,27.10
2022-12-22T07:39:43.204Z,24.33
2022-12-22T07:42:31.413Z,25.50
2022-12-22T07:44:58.548Z,24.33
2022-12-22T07:47:30.028Z,28.77
2022-12-22T07:50:19.113Z,22.90
2022-12-22T07:52:46.277Z,25.77
2022-12-22T07:55:14.158Z,26.70
2022-12-22T07:57:41.363Z,24.37
2022-12-22T08:00:08.810Z,24.90
2022-12-22T08:02:39.027Z,24.40
2022-12-22T08:05:06.758Z,25.70
2022-12-22T08:07:34.060Z,24.50
2022-12-22T08:10:01.217Z,21.63
2022-12-22T08:12:29.741Z,21.07
2022-12-22T08:14:57.095Z,20.33
2022-12-22T08:17:24.250Z,24.20
2022-12-22T08:19:51.368Z,21.27
2022-12-22T08:22:18.711Z,21.73
2022-12-22T08:24:45.902Z,22.40
2022-12-22T08:27:19.624Z,18.37
2022-12-22T08:29:56.725Z,18.97
2022-12-22T08:32:23.884Z,19.47
2022-12-22T08:34:51.513Z,20.83
2022-12-22T08:37:19.761Z,23.77
2022-12-22T08:39:49.071Z,23.23
2022-12-22T08:42:17.258Z,18.50
2022-12-22T08:44:45.941Z,19.30
2022-12-22T08:47:16.908Z,24.93
2022-12-22T08:49:44.651Z,14.03
2022-12-22T08:52:18.080Z,24.13
2022-12-22T08:54:46.533Z,22.00
2022-12-22T08:57:13.721Z,23.03
2022-12-22T08:59:40.929Z,27.53
2022-12-22T09:02:08.247Z,24.23
2022-12-22T09:04:35.658Z,24.40
2022-12-22T09:07:02.889Z,22.67
2022-12-22T09:09:34.305Z,23.57
2022-12-22T09:12:02.112Z,24.27
2022-12-22T09:14:29.776Z,24.27
2022-12-22T09:16:57.135Z,23.63
2022-12-22T09:19:24.464Z,23.03
2022-12-22T09:21:51.630Z,23.90
2022-12-22T09:24:19.260Z,31.63
2022-12-22T09:26:46.502Z,33.13
2022-12-22T09:29:15.356Z,25.23
2022-12-22T09:31:42.717Z,20.90
2022-12-22T09:34:16.835Z,29.73
2022-12-22T09:36:45.176Z,21.47
2022-12-22T09:39:12.602Z,25.87
2022-12-22T09:41:42.865Z,26.65
2022-12-22T09:44:19.170Z,28.20
2022-12-22T09:46:46.325Z,26.37
2022-12-22T09:49:15.485Z,28.07
2022-12-22T09:51:44.031Z,26.70
2022-12-22T09:54:13.018Z,26.93
2022-12-22T09:56:40.306Z,21.17
2022-12-22T09:59:14.709Z,24.60
2022-12-22T10:01:42.050Z,24.47
2022-12-22T10:04:12.316Z,21.73
2022-12-22T10:06:51.500Z,22.47
2022-12-22T10:12:14.064Z,22.90
2022-12-22T10:14:45.531Z,21.87
2022-12-22T10:17:21.868Z,29.87
2022-12-22T10:19:50.109Z,23.93
2022-12-22T10:22:23.536Z,26.17
2022-12-22T10:24:50.777Z,30.20
2022-12-22T10:27:21.990Z,25.87
2022-12-22T10:29:53.220Z,26.20
2022-12-22T10:32:22.111Z,22.30
2022-12-22T10:35:06.116Z,25.30
2022-12-22T10:37:34.993Z,25.87
2022-12-22T10:40:14.724Z,28.33
2022-12-22T10:42:51.069Z,20.70
2022-12-22T10:45:22.182Z,20.63
2022-12-22T10:47:51.574Z,24.90
2022-12-22T10:50:19.330Z,25.80
2022-12-22T10:52:57.000Z,22.80
2022-12-22T10:55:29.193Z,25.97
2022-12-22T10:58:11.719Z,25.10
2022-12-22T11:00:39.439Z,23.30
2022-12-22T11:03:08.140Z,23.10
2022-12-22T11:05:35.408Z,22.60
2022-12-22T11:08:12.142Z,27.10
2022-12-22T11:10:45.534Z,32.07
2022-12-22T11:13:34.084Z,23.33
2022-12-22T11:16:10.180Z,28.40
2022-12-22T11:18:52.514Z,24.00
2022-12-22T11:21:25.624Z,20.57
2022-12-22T11:24:11.015Z,24.33
2022-12-22T11:26:44.287Z,25.67
2022-12-22T11:29:20.799Z,23.23
2022-12-22T11:31:57.339Z,25.57
2022-12-22T11:34:44.768Z,22.30
2022-12-22T11:37:39.703Z,22.43
2022-12-22T11:40:16.497Z,21.73
2022-12-22T11:42:56.208Z,21.77
2022-12-22T11:45:43.668Z,21.47
2022-12-22T11:48:21.821Z,25.73
2022-12-22T11:51:00.152Z,25.53
2022-12-22T11:53:32.606Z,16.33
2022-12-22T11:56:07.361Z,28.30
2022-12-22T11:58:46.812Z,25.40
2022-12-22T12:01:37.503Z,22.13
2022-12-22T12:04:10.749Z,22.97
2022-12-22T12:06:47.427Z,25.17
2022-12-22T12:09:28.708Z,24.83
2022-12-22T12:12:03.452Z,24.03
2022-12-22T12:14:36.804Z,27.67
2022-12-22T12:17:07.330Z,26.67
2022-12-22T12:19:46.567Z,19.93
2022-12-22T12:22:27.077Z,25.50
2022-12-22T12:25:13.351Z,29.27
2022-12-22T12:27:43.512Z,22.23
2022-12-22T12:33:07.538Z,25.67
2022-12-22T12:35:46.867Z,22.23
2022-12-22T12:38:56.847Z,22.73
2022-12-22T12:41:19.227Z,27.40
2022-12-22T12:43:47.420Z,26.07
2022-12-22T12:46:33.334Z,28.30
2022-12-22T12:49:00.891Z,24.27
2022-12-22T12:52:01.669Z,21.73
2022-12-22T12:54:37.892Z,28.10
2022-12-22T12:57:08.052Z,23.97
2022-12-22T12:59:41.176Z,27.10
2022-12-22T13:02:27.328Z,29.50
2022-12-22T13:05:13.129Z,24.57
2022-12-22T13:07:59.159Z,28.53
2022-12-22T13:10:26.643Z,26.77
2022-12-22T13:12:54.914Z,29.40
2022-12-22T13:15:29.714Z,29.03
2022-12-22T13:17:58.119Z,28.80
2022-12-22T13:20:31.179Z,28.20
2022-12-22T13:22:59.762Z,26.03
2022-12-22T13:25:31.313Z,26.73
2022-12-22T13:27:59.026Z,29.97
2022-12-22T13:30:28.974Z,29.03
2022-12-22T13:32:57.989Z,28.23
2022-12-22T13:35:38.662Z,30.07
2022-12-22T13:38:27.825Z,24.83
2022-12-22T13:40:55.040Z,26.90
2022-12-22T13:43:22.293Z,21.87
2022-12-22T13:45:53.924Z,25.20
2022-12-22T13:48:30.521Z,26.57
2022-12-22T13:50:59.892Z,25.00
2022-12-22T13:54:08.485Z,23.60
2022-12-22T13:56:42.554Z,23.50
2022-12-22T13:59:21.929Z,19.27
2022-12-22T14:01:52.725Z,23.40
2022-12-22T14:04:20.047Z,25.40
2022-12-22T14:06:47.320Z,23.17
2022-12-22T14:09:18.232Z,30.43
2022-12-22T14:11:52.093Z,22.63
2022-12-22T14:14:27.989Z,24.57
2022-12-22T14:16:58.103Z,24.87
2022-12-22T14:19:25.749Z,21.20
2022-12-22T14:22:03.821Z,21.13
2022-12-22T14:24:38.468Z,20.87
2022-12-22T14:27:06.786Z,19.97
2022-12-22T14:29:34.011Z,22.23
2022-12-22T14:32:02.794Z,24.40
2022-12-22T14:34:31.730Z,20.23
2022-12-22T14:36:59.226Z,22.20
2022-12-22T14:39:33.463Z,24.47
2022-12-22T14:42:02.386Z,21.23
2022-12-22T14:44:30.896Z,17.13
2022-12-22T14:47:01.098Z,19.83
2022-12-22T14:49:28.415Z,16.87
2022-12-22T14:52:01.086Z,20.50
2022-12-22T14:54:29.074Z,17.20
2022-12-22T14:56:59.949Z,20.57
2022-12-22T14:59:28.234Z,18.40
2022-12-22T15:02:02.715Z,20.60
2022-12-22T15:04:30.435Z,18.10
2022-12-22T15:07:08.020Z,20.00
2022-12-22T15:10:13.816Z,15.93
2022-12-22T15:12:22.403Z,25.03
2022-12-22T15:14:49.785Z,21.90
2022-12-22T15:17:26.089Z,15.80
2022-12-22T15:19:57.676Z,21.47
2022-12-22T15:22:25.456Z,17.43
2022-12-22T15:24:52.880Z,19.63
2022-12-22T15:27:20.003Z,21.07
2022-12-22T15:29:47.185Z,21.23
2022-12-22T15:32:14.739Z,25.67
2022-12-22T15:34:42.244Z,18.73
2022-12-22T15:37:12.540Z,15.90
2022-12-22T15:39:40.378Z,21.07
2022-12-22T15:42:07.635Z,20.57
2022-12-22T15:44:38.725Z,19.43
2022-12-22T15:47:06.553Z,17.40
2022-12-22T15:49:33.714Z,18.87
2022-12-22T15:52:02.400Z,16.10
2022-12-22T15:54:33.097Z,19.37
2022-12-22T15:57:00.824Z,18.93
2022-12-22T15:59:28.605Z,15.63
2022-12-22T16:02:01.901Z,19.20
2022-12-22T16:04:29.745Z,17.87
2022-12-22T16:06:57.167Z,23.73
2022-12-22T16:09:25.767Z,22.30
2022-12-22T16:11:53.037Z,20.30
2022-12-22T16:14:21.459Z,19.47
2022-12-22T16:16:48.784Z,18.03
2022-12-22T16:19:16.942Z,19.00
2022-12-22T16:21:45.882Z,21.67
2022-12-22T16:24:22.204Z,24.67
2022-12-22T16:26:49.433Z,18.17
2022-12-22T16:29:17.488Z,23.40
2022-12-22T16:31:44.721Z,21.63
2022-12-22T16:34:12.969Z,27.27
2022-12-22T16:36:40.584Z,23.60
2022-12-22T16:39:08.072Z,20.80
2022-12-22T16:41:35.308Z,19.87
2022-12-22T16:44:05.876Z,20.50
2022-12-22T16:46:35.728Z,26.20
2022-12-22T16:49:02.948Z,17.90
2022-12-22T16:51:33.827Z,24.20
2022-12-22T16:54:01.688Z,19.40
2022-12-22T16:56:30.418Z,23.23
2022-12-22T16:58:58.105Z,21.30
2022-12-22T17:01:34.682Z,23.53
2022-12-22T17:04:04.302Z,22.53
2022-12-22T17:06:31.513Z,24.67
2022-12-22T17:08:58.853Z,22.13
2022-12-22T17:11:29.303Z,20.27
2022-12-22T17:14:00.293Z,18.03
2022-12-22T17:16:27.461Z,21.47
2022-12-22T17:18:54.611Z,24.60
2022-12-22T17:21:22.716Z,27.60
2022-12-22T17:23:53.957Z,20.77
2022-12-22T17:26:23.593Z,20.30
2022-12-22T17:28:50.974Z,21.60
2022-12-22T17:31:19.988Z,24.90
2022-12-22T17:33:47.254Z,23.27
2022-12-22T17:36:23.350Z,21.33
2022-12-22T17:38:50.510Z,21.47
2022-12-22T17:41:17.806Z,18.13
2022-12-22T17:43:46.587Z,19.57
2022-12-22T17:46:15.142Z,20.87
2022-12-22T17:48:42.387Z,23.40
2022-12-22T17:51:17.542Z,24.73
2022-12-22T17:53:45.269Z,22.57
2022-12-22T17:56:19.658Z,22.73
2022-12-22T17:58:46.937Z,21.40
2022-12-22T18:01:35.296Z,27.20
2022-12-22T18:04:02.522Z,24.90
2022-12-22T18:06:31.857Z,20.30
2022-12-22T18:08:59.155Z,28.40
2022-12-22T18:11:26.556Z,24.70
2022-12-22T18:13:54.133Z,26.30
2022-12-22T18:16:22.962Z,23.80
2022-12-22T18:18:50.257Z,24.43
2022-12-22T18:21:26.528Z,22.63
2022-12-22T18:23:53.712Z,32.97
2022-12-22T18:26:25.309Z,25.87
2022-12-22T18:28:53.103Z,32.87
2022-12-22T18:31:20.677Z,24.63
2022-12-22T18:33:47.973Z,22.63
2022-12-22T18:36:27.631Z,22.93
2022-12-22T18:38:55.060Z,26.93
2022-12-22T18:41:23.310Z,26.73
2022-12-22T18:43:50.472Z,18.70
2022-12-22T18:46:17.787Z,24.30
2022-12-22T18:48:45.411Z,21.33
2022-12-22T18:51:22.621Z,24.00
2022-12-22T18:53:50.400Z,28.27
2022-12-22T18:56:17.998Z,21.27
2022-12-22T18:58:46.270Z,31.80
2022-12-22T19:01:24.437Z,18.77
2022-12-22T19:03:52.730Z,16.70
2022-12-22T19:06:21.379Z,21.83
2022-12-22T19:08:49.308Z,20.77
2022-12-22T19:11:17.848Z,22.00
2022-12-22T19:13:46.834Z,22.33
2022-12-22T19:16:15.278Z,21.57
2022-12-22T19:18:42.882Z,15.43
2022-12-22T19:21:13.219Z,23.97
2022-12-22T19:23:40.429Z,18.00
2022-12-22T19:26:09.342Z,19.70
2022-12-22T19:28:41.635Z,20.13
2022-12-22T19:31:11.630Z,22.20
2022-12-22T19:33:43.116Z,17.27
2022-12-22T19:36:29.751Z,16.60
2022-12-22T19:39:03.884Z,15.03
2022-12-22T19:41:44.203Z,16.50
2022-12-22T19:44:27.631Z,18.73
2022-12-22T19:46:55.918Z,14.90
2022-12-22T19:49:27.357Z,15.40
2022-12-22T19:51:55.639Z,16.53
2022-12-22T19:54:22.934Z,15.93
2022-12-22T19:56:54.063Z,18.03
2022-12-22T19:59:38.511Z,18.07
2022-12-22T20:02:22.183Z,15.17
2022-12-22T20:04:49.688Z,11.07
2022-12-22T20:07:17.700Z,20.20
2022-12-22T20:09:44.877Z,18.03
2022-12-22T20:12:26.981Z,22.33
2022-12-22T20:14:54.184Z,13.47
2022-12-22T20:17:21.783Z,17.43
2022-12-22T20:19:48.940Z,17.17
2022-12-22T20:22:16.951Z,15.40
2022-12-22T20:24:44.667Z,18.63
2022-12-22T20:27:44.196Z,16.57
2022-12-22T20:30:18.827Z,19.13
2022-12-22T20:32:46.141Z,13.17
2022-12-22T20:35:13.297Z,13.63
2022-12-22T20:37:40.692Z,16.40
2022-12-22T20:40:22.268Z,15.00
2022-12-22T20:42:49.608Z,15.40
2022-12-22T20:45:17.276Z,20.00
2022-12-22T20:47:44.893Z,16.70
2022-12-22T20:50:23.179Z,18.47
2022-12-22T20:52:50.510Z,14.37
2022-12-22T20:55:18.873Z,18.33
2022-12-22T20:57:46.444Z,18.07
2022-12-22T21:00:31.752Z,13.77
2022-12-22T21:02:58.959Z,14.53
2022-12-22T21:05:26.118Z,15.23
2022-12-22T21:07:53.245Z,15.77
2022-12-22T21:10:22.384Z,12.57
2022-12-22T21:12:49.858Z,13.90
2022-12-22T21:15:18.529Z,11.47
2022-12-22T21:17:46.433Z,14.63
2022-12-22T21:20:21.101Z,13.43
2022-12-22T21:22:48.344Z,10.43
2022-12-22T21:25:15.673Z,10.97
2022-12-22T21:27:44.382Z,14.70
2022-12-22T21:30:21.924Z,12.77
2022-12-22T21:32:49.272Z,9.23
2022-12-22T21:35:17.879Z,12.63
2022-12-22T21:37:45.911Z,9.63
2022-12-22T21:40:21.147Z,9.23
2022-12-22T21:42:48.628Z,9.07
2022-12-22T21:45:16.791Z,12.43
2022-12-22T21:47:44.079Z,10.50
2022-12-22T21:50:30.268Z,6.27
2022-12-22T21:52:57.463Z,5.97
2022-12-22T21:55:30.675Z,10.37
2022-12-22T21:57:58.134Z,5.90
2022-12-22T22:00:26.028Z,5.03
2022-12-22T22:02:53.827Z,6.60
2022-12-22T22:05:24.245Z,9.30
2022-12-22T22:07:51.830Z,10.20
2022-12-22T22:10:20.188Z,6.57
2022-12-22T22:12:47.588Z,6.00
2022-12-22T22:15:15.322Z,6.87
2022-12-22T22:17:42.760Z,7.73
2022-12-22T22:20:11.341Z,11.20
2022-12-22T22:22:38.484Z,4.63
2022-12-22T22:25:05.887Z,8.80
2022-12-22T22:27:33.059Z,8.57
2022-12-22T22:30:00.251Z,7.30
2022-12-22T22:32:27.404Z,6.57
2022-12-22T22:34:54.602Z,7.20
2022-12-22T22:37:21.765Z,8.30
2022-12-22T22:39:48.899Z,8.60
2022-12-22T22:42:16.080Z,8.30
2022-12-22T22:44:43.276Z,6.53
2022-12-22T22:47:10.422Z,8.07
2022-12-22T22:49:37.597Z,11.23
2022-12-22T22:52:04.824Z,8.30
2022-12-22T22:54:32.788Z,10.47
2022-12-22T22:57:00.001Z,7.23
2022-12-22T22:59:27.130Z,6.13
2022-12-22T23:01:54.451Z,6.30
2022-12-22T23:04:21.784Z,8.40
2022-12-22T23:06:48.985Z,7.40
2022-12-22T23:09:16.209Z,4.53
2022-12-22T23:11:43.344Z,3.40
2022-12-22T23:14:10.487Z,3.97
2022-12-22T23:16:38.904Z,4.90
2022-12-22T23:19:06.509Z,5.13
2022-12-22T23:21:33.847Z,3.60
2022-12-22T23:24:01.064Z,5.43
2022-12-22T23:26:28.223Z,5.10
2022-12-22T23:28:59.404Z,3.77
2022-12-22T23:31:30.117Z,5.57
2022-12-22T23:33:57.833Z,4.47
2022-12-22T23:36:25.140Z,8.30
2022-12-22T23:38:52.319Z,7.07
2022-12-22T23:41:19.519Z,8.47
2022-12-22T23:43:46.755Z,8.53
2022-12-22T23:46:15.102Z,10.13
2022-12-22T23:48:42.498Z,10.13
2022-12-22T23:51:10.372Z,10.47
2022-12-22T23:53:37.686Z,11.00
2022-12-22T23:56:05.023Z,7.00
2022-12-22T23:58:32.186Z,11.67
